Time;durP1;ratioP1;P1;durP2;ratioP2;P2;SDS_P1;SDS_P2;PMS_P1;PMS_P2;Temp;Humidity;BMP_temperature;BMP_pressure;BME280_temperature;BME280_humidity;BME280_pressure;Samples;Min_cycle;Max_cycle;Signal;HPM_P1;HPM_P2
2021/03/08 00:00:15;;;;;;;14.85;8.50;;;3.30;99.90;;;;;;5041019;28;20277;-80
2021/03/08 00:02:42;;;;;;;15.30;8.75;;;3.20;99.90;;;;;;5043940;28;20208;-78
2021/03/08 00:05:11;;;;;;;11.30;7.95;;;3.20;99.90;;;;;;5050333;28;20266;-79
2021/03/08 00:07:38;;;;;;;12.80;8.43;;;3.10;99.90;;;;;;5045434;28;20227;-80
2021/03/08 00:10:05;;;;;;;13.23;7.80;;;3.20;99.90;;;;;;5042202;28;20306;-79
2021/03/08 00:12:31;;;;;;;15.85;7.97;;;3.40;99.90;;;;;;5046912;28;20208;-79
2021/03/08 00:14:58;;;;;;;12.63;8.27;;;3.10;99.90;;;;;;5040375;28;20288;-80
2021/03/08 00:17:24;;;;;;;11.00;8.00;;;3.20;99.90;;;;;;5036535;28;20204;-80
2021/03/08 00:19:50;;;;;;;14.32;8.55;;;3.20;99.90;;;;;;5049440;22;20227;-85
2021/03/08 00:22:17;;;;;;;13.48;7.43;;;3.10;99.90;;;;;;5036452;28;20215;-84
2021/03/08 00:24:44;;;;;;;11.15;7.95;;;3.10;99.90;;;;;;5040999;28;20215;-86
2021/03/08 00:27:11;;;;;;;10.90;7.80;;;3.10;99.90;;;;;;5041079;28;20645;-86
2021/03/08 00:29:37;;;;;;;13.00;8.38;;;3.20;99.90;;;;;;5040234;28;20258;-84
2021/03/08 00:32:05;;;;;;;18.65;8.57;;;3.10;99.90;;;;;;5040054;28;20191;-85
2021/03/08 00:34:32;;;;;;;11.95;6.93;;;3.20;99.90;;;;;;5041236;28;20204;-85
2021/03/08 00:36:58;;;;;;;14.13;8.27;;;3.10;99.90;;;;;;5040647;28;20215;-85
2021/03/08 00:39:24;;;;;;;9.77;7.00;;;3.10;99.90;;;;;;5040373;28;20610;-83
2021/03/08 00:41:51;;;;;;;17.50;7.72;;;3.10;99.90;;;;;;5040577;28;20226;-85
2021/03/08 00:44:17;;;;;;;12.20;8.32;;;3.10;99.90;;;;;;5042378;28;20212;-84
2021/03/08 00:46:43;;;;;;;14.23;8.43;;;3.00;99.90;;;;;;5039739;28;20204;-85
2021/03/08 00:49:09;;;;;;;11.80;6.78;;;3.10;99.90;;;;;;5039385;28;20274;-84
2021/03/08 00:51:35;;;;;;;11.70;6.30;;;3.10;99.90;;;;;;5040257;28;20204;-85
2021/03/08 00:54:01;;;;;;;8.93;6.47;;;3.00;99.90;;;;;;5039802;28;20199;-85
2021/03/08 00:56:27;;;;;;;7.57;4.90;;;3.20;99.90;;;;;;5039458;28;20671;-85
2021/03/08 00:58:54;;;;;;;9.07;6.18;;;3.30;99.90;;;;;;5039241;28;20227;-85
2021/03/08 01:01:21;;;;;;;8.75;6.20;;;3.00;99.90;;;;;;5039456;28;20204;-84
2021/03/08 01:03:47;;;;;;;10.27;6.10;;;3.10;99.90;;;;;;5042502;28;20208;-85
2021/03/08 01:06:13;;;;;;;10.18;5.30;;;3.00;99.90;;;;;;5042684;28;20208;-84
2021/03/08 01:08:39;;;;;;;8.13;5.57;;;3.10;99.90;;;;;;5041148;28;20274;-85
2021/03/08 01:11:05;;;;;;;5.70;5.07;;;3.00;99.90;;;;;;5041652;28;20223;-85
2021/03/08 01:13:32;;;;;;;8.85;5.60;;;2.80;99.90;;;;;;5041961;28;20804;-85
2021/03/08 01:16:02;;;;;;;9.00;5.63;;;2.90;99.90;;;;;;5042506;28;20257;-85
2021/03/08 01:18:28;;;;;;;14.93;6.82;;;;;;;;;;5042881;28;20200;-86
2021/03/08 01:20:54;;;;;;;7.50;6.32;;;2.80;99.90;;;;;;5048150;28;20358;-85
2021/03/08 01:23:24;;;;;;;11.23;5.93;;;2.80;99.90;;;;;;5045091;28;20208;-85
2021/03/08 01:25:50;;;;;;;9.50;7.00;;;2.90;99.90;;;;;;5044706;28;20208;-85
2021/03/08 01:28:17;;;;;;;6.07;4.53;;;3.80;99.90;;;;;;5045375;28;20227;-85
2021/03/08 01:30:47;;;;;;;6.95;5.00;;;3.10;99.90;;;;;;5045875;28;20223;-85
2021/03/08 01:33:18;;;;;;;10.20;6.15;;;3.10;99.90;;;;;;5044263;28;20558;-85
2021/03/08 01:35:44;;;;;;;7.85;5.88;;;3.10;99.90;;;;;;5045325;28;20263;-85
2021/03/08 01:38:10;;;;;;;9.30;6.22;;;3.10;99.90;;;;;;5045135;28;20238;-85
2021/03/08 01:40:41;;;;;;;7.68;5.05;;;3.00;99.90;;;;;;5044668;28;20227;-86
2021/03/08 01:43:08;;;;;;;6.65;5.30;;;3.00;99.90;;;;;;5045447;28;20214;-86
2021/03/08 01:45:35;;;;;;;8.35;5.32;;;2.90;99.90;;;;;;5043751;28;20219;-85
2021/03/08 01:48:02;;;;;;;7.20;5.68;;;3.00;99.90;;;;;;5043138;28;20234;-85
2021/03/08 01:50:32;;;;;;;8.52;4.90;;;3.10;99.90;;;;;;5044299;28;20223;-86
2021/03/08 01:52:59;;;;;;;7.50;4.78;;;3.20;99.90;;;;;;5045643;28;20283;-86
2021/03/08 01:55:27;;;;;;;7.72;5.18;;;2.90;99.90;;;;;;5044806;28;20203;-84
2021/03/08 01:57:53;;;;;;;6.05;4.78;;;3.00;99.90;;;;;;5044103;28;20204;-85
2021/03/08 02:00:21;;;;;;;12.50;5.00;;;2.90;99.90;;;;;;5041301;28;20569;-84
2021/03/08 02:02:47;;;;;;;11.00;6.13;;;2.90;99.90;;;;;;5041481;28;20257;-85
2021/03/08 02:05:16;;;;;;;10.13;5.38;;;2.80;99.90;;;;;;5041153;28;20211;-85
2021/03/08 02:07:43;;;;;;;8.02;6.22;;;2.80;99.90;;;;;;5041494;28;20246;-85
2021/03/08 02:10:11;;;;;;;6.68;5.40;;;2.80;99.90;;;;;;5040521;28;20230;-85
2021/03/08 02:12:49;;;;;;;6.70;5.05;;;2.80;99.90;;;;;;5040828;28;20207;-85
2021/03/08 02:15:24;;;;;;;7.72;4.72;;;2.80;99.90;;;;;;5042997;28;20195;-84
2021/03/08 02:17:56;;;;;;;4.32;3.78;;;2.70;99.90;;;;;;5042581;28;20188;-85
2021/03/08 02:20:48;;;;;;;9.23;5.75;;;2.60;99.90;;;;;;5046494;28;20231;-85
2021/03/08 02:23:47;;;;;;;8.43;5.45;;;2.50;99.90;;;;;;5043265;28;20196;-85
2021/03/08 02:26:26;;;;;;;8.40;6.43;;;2.40;99.90;;;;;;5037026;28;20204;-85
2021/03/08 02:29:05;;;;;;;9.57;6.20;;;2.20;99.90;;;;;;5036727;28;20212;-85
2021/03/08 02:31:33;;;;;;;7.28;4.82;;;2.20;99.90;;;;;;5053357;28;20182;-86
2021/03/08 02:34:04;;;;;;;8.30;5.13;;;2.20;99.90;;;;;;5057687;28;20208;-85
2021/03/08 02:36:34;;;;;;;7.43;5.82;;;2.20;99.90;;;;;;5058892;28;20183;-83
2021/03/08 02:39:05;;;;;;;7.63;4.97;;;2.20;99.90;;;;;;5052119;28;20205;-84
2021/03/08 02:41:33;;;;;;;8.55;5.70;;;2.10;99.90;;;;;;5049872;28;20192;-84
2021/03/08 02:44:03;;;;;;;14.40;5.63;;;2.50;99.90;;;;;;5054606;28;20215;-85
2021/03/08 02:46:34;;;;;;;7.75;5.57;;;2.00;99.90;;;;;;5054417;28;20207;-84
2021/03/08 02:49:03;;;;;;;14.68;5.85;;;2.30;99.90;;;;;;5057321;28;20222;-83
2021/03/08 02:51:31;;;;;;;7.80;4.60;;;2.00;99.90;;;;;;5058420;28;20298;-85
2021/03/08 02:54:00;;;;;;;6.88;5.03;;;2.10;99.90;;;;;;5058579;28;20199;-84
2021/03/08 02:56:31;;;;;;;11.68;6.20;;;1.90;99.90;;;;;;5058921;28;20191;-83
2021/03/08 02:58:58;;;;;;;5.55;4.47;;;2.10;99.90;;;;;;5058849;28;20180;-83
2021/03/08 03:01:25;;;;;;;7.35;4.85;;;2.30;99.90;;;;;;5059073;28;20188;-82
2021/03/08 03:03:54;;;;;;;9.57;5.65;;;1.80;99.90;;;;;;5059011;28;20192;-83
2021/03/08 03:06:23;;;;;;;5.70;5.10;;;1.70;99.90;;;;;;5058471;28;20171;-85
2021/03/08 03:08:50;;;;;;;7.47;4.53;;;1.30;99.90;;;;;;5058519;28;20242;-83
2021/03/08 03:11:17;;;;;;;12.18;5.55;;;1.60;99.90;;;;;;5058055;28;20206;-85
2021/03/08 03:13:45;;;;;;;7.00;5.13;;;4.60;99.90;;;;;;5056634;28;20191;-85
2021/03/08 03:16:14;;;;;;;4.43;3.45;;;1.70;99.90;;;;;;5053419;28;20203;-84
2021/03/08 03:18:41;;;;;;;9.15;5.40;;;1.50;99.90;;;;;;5049461;28;20211;-85
2021/03/08 03:21:09;;;;;;;8.02;4.60;;;1.50;99.90;;;;;;5044602;28;20239;-85
2021/03/08 03:23:38;;;;;;;10.38;5.82;;;1.50;99.90;;;;;;5043579;28;20208;-85
2021/03/08 03:26:06;;;;;;;7.13;4.38;;;1.40;99.90;;;;;;5041388;28;20207;-85
2021/03/08 03:28:33;;;;;;;8.32;4.45;;;1.40;99.90;;;;;;5041381;28;20698;-85
2021/03/08 03:31:00;;;;;;;7.72;3.80;;;1.30;99.90;;;;;;5040236;28;20230;-84
2021/03/08 03:33:27;;;;;;;5.57;3.40;;;1.30;99.90;;;;;;5040356;28;20210;-84
2021/03/08 03:35:53;;;;;;;7.60;3.60;;;1.30;99.90;;;;;;5039913;28;20203;-85
2021/03/08 03:38:21;;;;;;;5.90;3.50;;;1.30;99.90;;;;;;5044304;28;20196;-85
2021/03/08 03:40:48;;;;;;;2.63;2.20;;;1.30;99.90;;;;;;5043699;28;20227;-84
2021/03/08 03:43:15;;;;;;;4.68;3.40;;;1.30;99.90;;;;;;5041798;28;20199;-85
2021/03/08 03:45:41;;;;;;;5.70;3.33;;;1.30;99.90;;;;;;5040834;28;20238;-85
2021/03/08 03:48:08;;;;;;;9.52;2.80;;;1.20;99.90;;;;;;5041793;28;20224;-85
2021/03/08 03:50:34;;;;;;;5.38;3.78;;;1.20;99.90;;;;;;5040578;28;20231;-85
2021/03/08 03:53:01;;;;;;;7.13;3.53;;;1.00;99.90;;;;;;5041224;28;20215;-85
2021/03/08 03:55:28;;;;;;;3.88;2.42;;;1.10;99.90;;;;;;5040506;28;20214;-85
2021/03/08 03:58:05;;;;;;;3.15;2.75;;;1.10;99.90;;;;;;5046331;28;20226;-84
2021/03/08 04:00:37;;;;;;;6.07;3.95;;;0.90;99.90;;;;;;5042812;28;20227;-84
2021/03/08 04:03:07;;;;;;;4.28;3.15;;;1.00;99.90;;;;;;5045085;28;20188;-85
2021/03/08 04:05:34;;;;;;;5.72;3.33;;;0.90;99.90;;;;;;5044395;28;20208;-85
2021/03/08 04:08:01;;;;;;;6.85;3.58;;;0.70;99.90;;;;;;5044166;28;20219;-84
2021/03/08 04:10:28;;;;;;;7.18;3.20;;;0.80;99.90;;;;;;5044823;28;20612;-85
2021/03/08 04:12:59;;;;;;;8.73;3.50;;;0.70;99.90;;;;;;5045114;28;20218;-85
2021/03/08 04:15:28;;;;;;;4.30;2.92;;;0.80;99.90;;;;;;5044505;28;20685;-85
2021/03/08 04:17:56;;;;;;;6.55;3.60;;;0.70;99.90;;;;;;5044337;28;20667;-85
2021/03/08 04:20:26;;;;;;;4.72;3.20;;;0.60;99.90;;;;;;5043634;28;20231;-85
2021/03/08 04:22:54;;;;;;;5.32;3.08;;;0.70;99.90;;;;;;5043646;28;20672;-85
2021/03/08 04:25:21;;;;;;;12.23;4.25;;;0.70;99.90;;;;;;5045130;28;20578;-85
2021/03/08 04:27:49;;;;;;;5.25;2.60;;;0.40;99.90;;;;;;5043374;28;20227;-84
2021/03/08 04:30:16;;;;;;;7.55;3.83;;;0.70;99.90;;;;;;5044481;28;20281;-84
2021/03/08 04:32:43;;;;;;;4.40;4.00;;;0.60;99.90;;;;;;5044878;28;20200;-84
2021/03/08 04:35:10;;;;;;;9.18;4.47;;;0.50;99.90;;;;;;5045145;28;20211;-85
2021/03/08 04:37:38;;;;;;;10.32;3.47;;;0.60;99.90;;;;;;5044646;28;20211;-84
2021/03/08 04:40:07;;;;;;;4.65;3.20;;;0.50;99.90;;;;;;5044081;28;20224;-84
2021/03/08 04:42:34;;;;;;;11.65;3.47;;;0.50;99.90;;;;;;5043244;28;20204;-86
2021/03/08 04:45:03;;;;;;;7.75;3.67;;;0.50;99.90;;;;;;5043596;28;20690;-84
2021/03/08 04:47:29;;;;;;;4.45;3.58;;;0.40;99.90;;;;;;5043661;28;20584;-85
2021/03/08 04:49:56;;;;;;;4.43;3.00;;;0.40;99.90;;;;;;5042336;28;20227;-84
2021/03/08 04:52:23;;;;;;;11.98;4.07;;;0.40;99.90;;;;;;5045772;28;20230;-85
2021/03/08 04:54:50;;;;;;;5.47;3.40;;;0.40;99.90;;;;;;5044482;28;20207;-85
2021/03/08 04:57:20;;;;;;;4.45;3.70;;;0.40;99.90;;;;;;5044024;28;20208;-85
2021/03/08 04:59:47;;;;;;;11.48;3.80;;;0.40;99.90;;;;;;5044201;28;20238;-84
2021/03/08 05:02:17;;;;;;;7.95;4.72;;;0.40;99.90;;;;;;5044868;28;20204;-84
2021/03/08 05:04:47;;;;;;;5.00;4.15;;;0.30;99.90;;;;;;5044248;28;20200;-86
2021/03/08 05:07:18;;;;;;;6.32;3.10;;;0.30;99.90;;;;;;5044457;28;20200;-85
2021/03/08 05:09:44;;;;;;;5.43;3.60;;;0.00;99.90;;;;;;5043318;28;20220;-84
2021/03/08 05:12:12;;;;;;;4.20;3.55;;;0.10;99.90;;;;;;5042581;28;20199;-84
2021/03/08 05:14:39;;;;;;;7.78;3.67;;;0.10;99.90;;;;;;5042044;28;20207;-84
2021/03/08 05:17:07;;;;;;;5.20;3.47;;;0.10;99.90;;;;;;5042727;28;20576;-84
2021/03/08 05:19:36;;;;;;;10.40;3.50;;;0.10;99.90;;;;;;5042500;28;20236;-85
2021/03/08 05:22:03;;;;;;;6.70;4.13;;;0.10;99.90;;;;;;5043342;28;20195;-85
2021/03/08 05:24:29;;;;;;;10.43;4.05;;;0.00;99.90;;;;;;5044059;28;20208;-84
2021/03/08 05:26:57;;;;;;;4.97;3.80;;;0.10;99.90;;;;;;5050668;28;20200;-84
2021/03/08 05:29:25;;;;;;;5.60;3.45;;;0.10;99.90;;;;;;5045015;28;20314;-84
2021/03/08 05:31:52;;;;;;;5.47;3.50;;;0.10;99.90;;;;;;5047002;28;20208;-84
2021/03/08 05:34:20;;;;;;;6.55;3.50;;;0.10;99.90;;;;;;5046678;28;20203;-84
2021/03/08 05:36:49;;;;;;;6.53;3.22;;;1.30;99.90;;;;;;5044231;28;20212;-84
2021/03/08 05:39:18;;;;;;;4.75;3.78;;;0.10;99.90;;;;;;5046244;28;20231;-85
2021/03/08 05:41:54;;;;;;;10.35;3.88;;;0.00;99.90;;;;;;5058522;28;20218;-83
2021/03/08 05:44:22;;;;;;;7.15;3.60;;;0.00;99.90;;;;;;5050197;28;20247;-85
2021/03/08 05:47:10;;;;;;;4.85;4.18;;;0.00;99.90;;;;;;5046770;28;20206;-85
2021/03/08 05:50:01;;;;;;;4.57;3.20;;;0.10;99.90;;;;;;5044782;28;20235;-84
2021/03/08 05:52:51;;;;;;;9.73;3.85;;;0.10;99.90;;;;;;5044657;28;20188;-84
2021/03/08 05:55:34;;;;;;;9.07;4.00;;;-0.10;99.90;;;;;;5045094;28;20200;-85
2021/03/08 05:58:14;;;;;;;5.03;3.83;;;0.00;99.90;;;;;;5043993;28;20184;-85
2021/03/08 06:00:54;;;;;;;4.72;3.55;;;0.10;99.90;;;;;;5043547;28;20234;-84
2021/03/08 06:03:37;;;;;;;6.00;3.78;;;0.10;99.90;;;;;;5042310;28;20188;-84
2021/03/08 06:06:33;;;;;;;6.95;3.92;;;0.20;99.90;;;;;;5047732;28;20188;-85
2021/03/08 06:09:22;;;;;;;5.55;3.60;;;0.00;99.90;;;;;;5049805;28;20442;-85
2021/03/08 06:11:54;;;;;;;6.50;3.72;;;0.30;99.90;;;;;;5055480;28;20200;-84
2021/03/08 06:14:25;;;;;;;4.15;2.75;;;0.20;99.90;;;;;;5045032;28;20187;-85
2021/03/08 06:16:52;;;;;;;6.97;3.33;;;0.10;99.90;;;;;;5041897;28;20638;-85
2021/03/08 06:19:18;;;;;;;4.93;3.20;;;;;;;;;;5065486;22;20626;31
2021/03/08 06:21:44;;;;;;;5.85;3.65;;;1.60;99.90;;;;;;4984961;28;20232;-79
2021/03/08 06:24:12;;;;;;;6.00;2.97;;;0.10;99.90;;;;;;4987308;28;20206;-79
2021/03/08 06:26:40;;;;;;;5.32;3.40;;;0.10;99.90;;;;;;4989800;28;20209;-79
2021/03/08 06:29:07;;;;;;;6.15;3.65;;;0.10;99.90;;;;;;4993490;28;20249;-79
2021/03/08 06:31:35;;;;;;;8.20;3.33;;;0.10;99.90;;;;;;4991730;28;20445;-79
2021/03/08 06:34:02;;;;;;;8.85;4.57;;;0.20;99.90;;;;;;4989442;28;20205;-79
2021/03/08 06:36:29;;;;;;;4.93;3.47;;;0.10;99.90;;;;;;4987877;28;20350;-78
2021/03/08 06:38:55;;;;;;;3.70;3.40;;;0.20;99.90;;;;;;4988495;28;20213;-78
2021/03/08 06:41:22;;;;;;;6.70;3.35;;;0.30;99.90;;;;;;4989211;28;20239;-79
2021/03/08 06:43:49;;;;;;;8.20;3.90;;;0.30;99.90;;;;;;4983761;28;20206;-78
2021/03/08 06:46:16;;;;;;;7.20;3.30;;;0.40;99.90;;;;;;4980922;28;20209;-79
2021/03/08 06:48:43;;;;;;;5.43;3.60;;;0.50;99.90;;;;;;4980449;28;20634;-79
2021/03/08 06:51:11;;;;;;;4.65;3.45;;;0.50;99.90;;;;;;4980014;28;20597;-78
2021/03/08 06:53:37;;;;;;;5.18;3.25;;;0.50;99.90;;;;;;4980943;28;20205;-79
2021/03/08 06:56:21;;;;;;;6.78;3.83;;;0.50;99.90;;;;;;4982485;28;20209;-80
2021/03/08 06:59:05;;;;;;;3.75;3.40;;;0.40;99.90;;;;;;4992600;28;20213;-78
2021/03/08 07:01:32;;;;;;;10.52;3.58;;;0.60;99.90;;;;;;4992620;28;20248;-79
2021/03/08 07:04:01;;;;;;;5.75;3.70;;;0.70;99.90;;;;;;4989289;28;20210;-79
2021/03/08 07:06:27;;;;;;;6.25;4.10;;;0.80;99.90;;;;;;4984651;28;20218;-79
2021/03/08 07:09:03;;;;;;;9.55;4.10;;;0.80;99.90;;;;;;4979816;28;20222;-79
2021/03/08 07:11:29;;;;;;;5.45;3.35;;;0.90;99.90;;;;;;4978816;28;20229;-78
2021/03/08 07:13:56;;;;;;;6.82;3.13;;;0.90;99.90;;;;;;4979287;28;20676;-78
2021/03/08 07:16:34;;;;;;;5.30;3.53;;;0.90;99.90;;;;;;4981712;28;20673;-79
2021/03/08 07:19:00;;;;;;;5.50;2.97;;;0.90;99.90;;;;;;4995967;28;20189;-79
2021/03/08 07:21:26;;;;;;;6.32;3.70;;;0.80;99.90;;;;;;5012775;28;20307;-80
2021/03/08 07:23:53;;;;;;;5.05;2.97;;;0.80;99.90;;;;;;5004700;28;20212;-78
2021/03/08 07:26:21;;;;;;;8.50;3.30;;;1.00;99.90;;;;;;5004589;28;20205;-80
2021/03/08 07:29:07;;;;;;;6.22;3.58;;;1.00;99.90;;;;;;5003832;28;20217;-79
2021/03/08 07:31:35;;;;;;;5.40;2.83;;;1.00;99.90;;;;;;5003311;28;20271;-78
2021/03/08 07:34:02;;;;;;;3.92;3.53;;;1.00;99.90;;;;;;5004766;28;20231;-80
2021/03/08 07:36:29;;;;;;;4.57;3.53;;;1.10;99.90;;;;;;5003865;28;20205;-79
2021/03/08 07:38:55;;;;;;;9.77;3.90;;;1.30;99.90;;;;;;5005281;28;20574;-80
2021/03/08 07:41:23;;;;;;;8.15;3.55;;;1.40;99.90;;;;;;5006340;28;20256;-79
2021/03/08 07:43:50;;;;;;;5.68;3.17;;;1.40;99.90;;;;;;5008514;28;20213;-78
2021/03/08 07:46:28;;;;;;;6.00;3.08;;;1.40;99.90;;;;;;5001897;28;20443;-79
2021/03/08 07:48:55;;;;;;;4.65;3.25;;;1.50;99.90;;;;;;5003503;28;20227;-79
2021/03/08 07:51:21;;;;;;;4.50;3.65;;;1.70;99.90;;;;;;5003437;28;20231;-79
2021/03/08 07:53:48;;;;;;;7.03;3.85;;;1.60;99.90;;;;;;5002781;28;20441;-79
2021/03/08 07:56:14;;;;;;;3.90;3.38;;;1.50;99.90;;;;;;5006701;28;20201;-78
2021/03/08 07:58:41;;;;;;;5.55;4.25;;;1.60;99.90;;;;;;5002729;28;20215;-78
2021/03/08 08:01:09;;;;;;;4.15;3.03;;;1.70;99.90;;;;;;5003937;28;20227;-79
2021/03/08 08:03:37;;;;;;;6.07;3.50;;;1.70;99.90;;;;;;5004519;28;20205;-79
2021/03/08 08:06:04;;;;;;;5.05;3.30;;;1.70;99.90;;;;;;5009401;28;20216;-78
2021/03/08 08:08:32;;;;;;;7.00;4.50;;;1.80;99.90;;;;;;5018668;28;20449;-78
2021/03/08 08:10:59;;;;;;;4.40;3.10;;;2.00;99.90;;;;;;5011343;28;20538;-79
2021/03/08 08:13:30;;;;;;;3.38;3.08;;;2.10;99.90;;;;;;5004874;28;20212;-79
2021/03/08 08:15:57;;;;;;;4.50;3.20;;;2.10;99.90;;;;;;5012874;28;20185;-79
2021/03/08 08:18:28;;;;;;;4.78;3.47;;;2.20;99.90;;;;;;5015764;28;20192;-79
2021/03/08 08:20:57;;;;;;;3.13;2.15;;;2.20;99.90;;;;;;5003779;28;20291;-79
2021/03/08 08:23:28;;;;;;;4.57;2.85;;;2.10;99.90;;;;;;5007778;28;20220;-79
2021/03/08 08:25:55;;;;;;;3.22;2.67;;;2.10;99.90;;;;;;5018105;28;20194;-78
2021/03/08 08:28:21;;;;;;;4.47;2.35;;;2.20;99.90;;;;;;5016569;28;20229;-78
2021/03/08 08:30:58;;;;;;;4.03;2.10;;;2.10;99.90;;;;;;5015812;28;20238;-78
2021/03/08 08:33:29;;;;;;;3.38;1.85;;;2.20;99.90;;;;;;5018332;28;20212;-78
2021/03/08 08:36:10;;;;;;;5.32;2.80;;;2.30;99.90;;;;;;5018485;28;20196;-79
2021/03/08 08:38:38;;;;;;;4.30;2.88;;;2.20;99.90;;;;;;5017896;28;20192;-78
2021/03/08 08:41:24;;;;;;;6.78;2.20;;;2.30;99.90;;;;;;5018177;28;20228;-78
2021/03/08 08:44:26;;;;;;;1.83;1.73;;;2.40;99.90;;;;;;5010857;28;20189;-79
2021/03/08 08:47:13;;;;;;;5.43;1.70;;;2.60;99.90;;;;;;5001671;28;20813;-79
2021/03/08 08:49:41;;;;;;;4.40;1.70;;;2.90;99.90;;;;;;5004169;28;20456;-79
2021/03/08 08:52:07;;;;;;;4.22;2.67;;;2.90;99.90;;;;;;5003196;28;20227;-80
2021/03/08 08:54:55;;;;;;;5.75;2.63;;;3.10;99.90;;;;;;5009973;28;20205;-79
2021/03/08 08:57:21;;;;;;;3.67;2.22;;;3.10;99.90;;;;;;5010396;28;20188;-79
2021/03/08 09:00:20;;;;;;;2.70;1.60;;;3.30;99.90;;;;;;5006781;28;20239;-79
2021/03/08 09:02:47;;;;;;;3.90;1.20;;;3.10;99.90;;;;;;5001914;28;20441;-79
2021/03/08 09:05:39;;;;;;;4.85;1.90;;;2.90;99.90;;;;;;5004611;28;20213;-78
2021/03/08 09:08:23;;;;;;;1.10;0.98;;;3.50;99.90;;;;;;5001010;28;20479;-79
2021/03/08 09:10:49;;;;;;;7.55;1.50;;;3.30;99.90;;;;;;5002203;28;20236;-80
2021/03/08 09:13:16;;;;;;;3.72;1.20;;;3.40;99.90;;;;;;5003142;28;20209;-79
2021/03/08 09:15:43;;;;;;;4.18;3.15;;;3.60;99.90;;;;;;5006133;28;20213;-79
2021/03/08 09:18:09;;;;;;;2.05;1.50;;;3.80;99.90;;;;;;5013367;28;20200;-79
2021/03/08 09:20:39;;;;;;;2.17;1.35;;;4.20;99.90;;;;;;5017487;28;20265;-78
2021/03/08 09:23:21;;;;;;;1.55;1.42;;;3.50;99.90;;;;;;5017362;28;20220;-79
2021/03/08 09:25:55;;;;;;;3.75;1.20;;;2.90;99.90;;;;;;5012519;28;20189;-79
2021/03/08 09:28:22;;;;;;;1.58;1.38;;;2.90;99.90;;;;;;5005468;28;20626;-79
2021/03/08 09:30:49;;;;;;;2.78;1.65;;;3.00;99.90;;;;;;5003419;28;20220;-79
2021/03/08 09:33:17;;;;;;;2.47;1.50;;;3.00;99.90;;;;;;5002296;28;20608;-78
2021/03/08 09:35:45;;;;;;;4.90;1.65;;;2.90;99.90;;;;;;5002501;28;20237;-79
2021/03/08 09:38:14;;;;;;;1.50;1.40;;;3.20;99.90;;;;;;5008025;28;20211;-79
2021/03/08 09:40:42;;;;;;;1.50;1.35;;;3.30;99.90;;;;;;5007940;28;20233;-80
2021/03/08 09:43:25;;;;;;;1.85;1.33;;;3.30;99.90;;;;;;5010531;28;20212;-80
2021/03/08 09:45:57;;;;;;;5.68;1.80;;;3.70;99.90;;;;;;5007967;28;20220;-79
2021/03/08 09:48:23;;;;;;;4.00;1.80;;;3.70;99.90;;;;;;5007517;28;20235;-79
2021/03/08 09:50:50;;;;;;;4.25;2.85;;;3.70;99.90;;;;;;5008057;28;20229;-80
2021/03/08 09:53:16;;;;;;;1.50;1.40;;;3.80;99.90;;;;;;5005136;28;20213;-80
2021/03/08 09:55:42;;;;;;;1.75;1.65;;;3.90;99.90;;;;;;5006976;28;20640;-79
2021/03/08 09:58:11;;;;;;;0.90;0.90;;;3.90;99.90;;;;;;5003682;28;20236;-80
2021/03/08 10:00:37;;;;;;;2.75;1.70;;;3.90;99.90;;;;;;5003142;28;20236;-80
2021/03/08 10:03:07;;;;;;;3.67;1.40;;;4.00;99.90;;;;;;5001953;28;20201;-79
2021/03/08 10:05:44;;;;;;;4.53;1.95;;;3.90;99.90;;;;;;5003262;28;20205;-79
2021/03/08 10:08:12;;;;;;;2.20;1.98;;;3.80;99.90;;;;;;5005656;28;20231;-78
2021/03/08 10:10:41;;;;;;;1.10;1.00;;;3.80;99.90;;;;;;5005117;28;20229;-80
2021/03/08 10:13:07;;;;;;;3.08;1.60;;;3.90;99.50;;;;;;5005889;28;20201;-80
2021/03/08 10:15:42;;;;;;;3.08;1.88;;;3.80;99.90;;;;;;5007860;28;20205;-78
2021/03/08 10:18:09;;;;;;;1.20;1.10;;;3.90;99.90;;;;;;5008295;28;20215;-80
2021/03/08 10:21:00;;;;;;;1.10;1.00;;;4.10;97.10;;;;;;5008529;28;20256;-80
2021/03/08 10:23:28;;;;;;;1.20;1.10;;;4.10;93.20;;;;;;5007574;28;20188;-80
2021/03/08 10:26:03;;;;;;;1.20;1.10;;;4.20;99.50;;;;;;5010021;28;20564;-80
2021/03/08 10:28:36;;;;;;;1.83;1.73;;;3.80;91.50;;;;;;5009429;28;20215;-80
2021/03/08 10:31:03;;;;;;;1.30;1.20;;;3.90;93.80;;;;;;5015313;28;20224;-80
2021/03/08 10:33:31;;;;;;;2.00;0.80;;;4.00;95.00;;;;;;5015451;28;20209;-80
2021/03/08 10:35:57;;;;;;;3.08;1.45;;;3.90;94.50;;;;;;5011653;28;20205;-80
2021/03/08 10:38:27;;;;;;;9.88;1.70;;;4.10;97.70;;;;;;5008847;28;20196;-80
2021/03/08 10:40:54;;;;;;;1.05;0.95;;;4.20;95.10;;;;;;5010609;28;20217;-81
2021/03/08 10:43:22;;;;;;;2.15;1.17;;;3.80;92.70;;;;;;5008990;28;20205;-79
2021/03/08 10:45:49;;;;;;;1.35;0.98;;;3.90;94.90;;;;;;5009391;28;20201;-79
2021/03/08 10:48:15;;;;;;;1.80;0.98;;;3.90;92.80;;;;;;5013128;28;20224;-80
2021/03/08 10:50:45;;;;;;;2.55;1.13;;;4.10;91.70;;;;;;5014054;28;20224;-78
2021/03/08 10:53:12;;;;;;;1.30;1.20;;;4.00;91.70;;;;;;5014243;28;20189;-78
2021/03/08 10:55:38;;;;;;;1.33;1.23;;;4.20;92.80;;;;;;5009539;28;20209;-81
2021/03/08 10:58:05;;;;;;;2.22;1.20;;;4.40;94.60;;;;;;5004288;28;20224;-80
2021/03/08 11:00:32;;;;;;;4.18;2.00;;;4.30;90.90;;;;;;5007080;28;20224;-80
2021/03/08 11:03:00;;;;;;;6.53;2.95;;;4.30;90.20;;;;;;5002241;28;20209;-81
2021/03/08 11:05:27;;;;;;;1.23;1.13;;;4.40;87.90;;;;;;5001893;28;20205;-81
2021/03/08 11:07:55;;;;;;;2.53;1.15;;;4.20;85.10;;;;;;4999895;28;20209;-80
2021/03/08 11:10:35;;;;;;;3.70;1.33;;;4.20;86.50;;;;;;4998568;28;20723;-78
2021/03/08 11:13:03;;;;;;;1.17;1.08;;;4.30;90.50;;;;;;4999022;28;20216;-80
2021/03/08 11:15:30;;;;;;;5.82;2.20;;;4.40;87.00;;;;;;4999788;28;20244;-80
2021/03/08 11:17:56;;;;;;;1.30;1.20;;;4.50;89.30;;;;;;4999831;28;20227;-79
2021/03/08 11:20:25;;;;;;;1.80;1.27;;;4.40;85.40;;;;;;4999701;28;20233;-79
2021/03/08 11:23:03;;;;;;;1.88;1.17;;;4.60;90.40;;;;;;5000664;28;20557;-79
2021/03/08 11:25:36;;;;;;;1.95;1.48;;;4.40;81.00;;;;;;5002235;28;20216;-79
2021/03/08 11:28:05;;;;;;;2.92;1.10;;;4.60;83.90;;;;;;5003477;28;20182;-79
2021/03/08 11:30:35;;;;;;;2.03;1.30;;;4.70;84.20;;;;;;5003308;28;20628;-81
2021/03/08 11:33:03;;;;;;;1.58;1.48;;;4.80;84.70;;;;;;5002661;28;20209;-80
2021/03/08 11:35:32;;;;;;;3.35;1.45;;;4.70;79.40;;;;;;5005071;28;20613;-80
2021/03/08 11:38:02;;;;;;;2.80;2.28;;;4.60;81.90;;;;;;5009535;28;20212;-80
2021/03/08 11:40:31;;;;;;;1.00;0.88;;;4.40;96.20;;;;;;5012329;28;20232;-80
2021/03/08 11:42:58;;;;;;;1.25;1.05;;;4.60;84.00;;;;;;5008346;28;20226;-80
2021/03/08 11:45:25;;;;;;;1.05;1.05;;;4.60;81.70;;;;;;5011594;28;20205;-79
2021/03/08 11:47:53;;;;;;;1.27;1.08;;;4.60;79.30;;;;;;5010676;28;20217;-79
2021/03/08 11:50:21;;;;;;;1.40;1.30;;;4.50;75.90;;;;;;5007919;28;20221;-78
2021/03/08 11:52:47;;;;;;;6.60;3.17;;;4.60;75.30;;;;;;5012111;28;20211;-78
2021/03/08 11:55:15;;;;;;;2.33;1.50;;;4.70;75.90;;;;;;5013786;28;20236;-79
2021/03/08 11:57:43;;;;;;;2.22;2.00;;;4.80;75.70;;;;;;5005140;28;20204;-80
2021/03/08 12:00:11;;;;;;;2.55;1.40;;;4.90;78.70;;;;;;5003497;28;20256;-81
2021/03/08 12:02:37;;;;;;;2.00;1.65;;;5.00;77.70;;;;;;5011576;28;20209;-79
2021/03/08 12:05:04;;;;;;;1.55;1.40;;;5.20;76.60;;;;;;5010326;28;20216;-80
2021/03/08 12:07:30;;;;;;;2.47;1.40;;;5.20;73.50;;;;;;5002553;28;20231;-80
2021/03/08 12:09:57;;;;;;;2.15;1.30;;;4.70;83.50;;;;;;5001831;28;20296;-80
2021/03/08 12:12:23;;;;;;;2.45;1.30;;;5.00;75.00;;;;;;5001549;28;20224;-81
2021/03/08 12:14:50;;;;;;;1.45;1.30;;;5.10;76.70;;;;;;5001452;28;20680;-80
2021/03/08 12:17:16;;;;;;;2.35;1.25;;;5.20;71.60;;;;;;5002058;28;20211;-80
2021/03/08 12:22:13;;;;;;;2.13;1.05;;;5.20;88.40;;;;;;5018803;28;20216;-85
2021/03/08 12:24:39;;;;;;;4.18;3.30;;;5.20;70.10;;;;;;5020280;28;20235;-86
2021/03/08 12:27:06;;;;;;;6.68;1.48;;;5.30;70.70;;;;;;5020782;28;20254;-85
2021/03/08 12:29:32;;;;;;;1.63;1.20;;;5.40;71.50;;;;;;5022038;28;20220;-86
2021/03/08 12:31:59;;;;;;;2.92;1.02;;;5.20;78.90;;;;;;5021329;28;20443;-85
2021/03/08 12:34:25;;;;;;;1.63;1.02;;;5.30;74.50;;;;;;5021164;28;20236;-85
2021/03/08 12:36:52;;;;;;;2.80;1.70;;;5.20;67.60;;;;;;5026547;28;20211;-85
2021/03/08 12:39:18;;;;;;;2.45;1.70;;;5.40;69.00;;;;;;5032222;28;20200;-85
2021/03/08 12:41:46;;;;;;;1.83;1.20;;;5.40;70.20;;;;;;5023677;28;20224;-86
2021/03/08 12:44:12;;;;;;;1.40;1.30;;;5.50;68.20;;;;;;5021656;28;20211;-85
2021/03/08 12:46:38;;;;;;;9.35;1.48;;;5.50;77.10;;;;;;5021208;28;20213;-85
2021/03/08 12:49:05;;;;;;;8.20;1.60;;;5.60;71.40;;;;;;5023536;28;20232;-86
2021/03/08 12:51:31;;;;;;;1.90;1.70;;;5.60;73.90;;;;;;5026584;28;20229;-85
2021/03/08 12:53:57;;;;;;;2.55;1.80;;;7.90;72.80;;;;;;5029626;28;20254;-85
2021/03/08 12:56:23;;;;;;;2.35;2.00;;;5.80;70.20;;;;;;5027966;28;20207;-85
2021/03/08 12:58:49;;;;;;;1.98;1.77;;;5.90;74.30;;;;;;5024239;28;20205;-85
2021/03/08 13:01:16;;;;;;;2.85;1.83;;;6.00;68.80;;;;;;5024272;28;20278;-84
2021/03/08 13:03:42;;;;;;;1.40;1.30;;;5.80;64.90;;;;;;5026048;28;20212;-85
2021/03/08 13:06:09;;;;;;;2.55;1.40;;;5.60;64.40;;;;;;5027034;28;20213;-84
2021/03/08 13:08:36;;;;;;;1.30;1.20;;;5.60;75.10;;;;;;5033989;28;20224;-86